sensor_id;sensor_type;location;lat;lon;timestamp;temperature;humidity
25937;DHT22;13733;51.178;4.450;2023-03-01T00:01:29;2.10;99.90
25937;DHT22;13733;51.178;4.450;2023-03-01T00:03:56;2.10;99.90
25937;DHT22;13733;51.178;4.450;2023-03-01T00:06:22;2.10;99.90
25937;DHT22;13733;51.178;4.450;2023-03-01T00:08:48;2.10;99.90
25937;DHT22;13733;51.178;4.450;2023-03-01T00:11:19;2.10;99.90
25937;DHT22;13733;51.178;4.450;2023-03-01T00:13:47;2.10;99.90
25937;DHT22;13733;51.178;4.450;2023-03-01T00:16:16;2.10;99.90
25937;DHT22;13733;51.178;4.450;2023-03-01T00:18:43;2.10;99.90
25937;DHT22;13733;51.178;4.450;2023-03-01T00:21:11;2.00;99.90
25937;DHT22;13733;51.178;4.450;2023-03-01T00:23:37;2.00;99.90
25937;DHT22;13733;51.178;4.450;2023-03-01T00:26:10;2.10;99.90
25937;DHT22;13733;51.178;4.450;2023-03-01T00:28:39;2.10;99.90
25937;DHT22;13733;51.178;4.450;2023-03-01T00:31:06;2.10;99.90
25937;DHT22;13733;51.178;4.450;2023-03-01T00:33:32;2.10;99.90
25937;DHT22;13733;51.178;4.450;2023-03-01T00:35:59;2.10;99.90
25937;DHT22;13733;51.178;4.450;2023-03-01T00:38:25;2.00;99.90
25937;DHT22;13733;51.178;4.450;2023-03-01T00:40:52;2.00;99.90
25937;DHT22;13733;51.178;4.450;2023-03-01T00:43:19;1.90;99.90
25937;DHT22;13733;51.178;4.450;2023-03-01T00:45:46;1.90;99.90
25937;DHT22;13733;51.178;4.450;2023-03-01T00:48:11;1.80;99.90
25937;DHT22;13733;51.178;4.450;2023-03-01T00:50:37;1.70;99.90
25937;DHT22;13733;51.178;4.450;2023-03-01T00:53:03;1.70;99.90
25937;DHT22;13733;51.178;4.450;2023-03-01T00:55:31;1.70;99.90
25937;DHT22;13733;51.178;4.450;2023-03-01T00:57:56;1.70;99.90
25937;DHT22;13733;51.178;4.450;2023-03-01T01:00:22;1.70;99.90
25937;DHT22;13733;51.178;4.450;2023-03-01T01:02:48;1.70;99.90
25937;DHT22;13733;51.178;4.450;2023-03-01T01:05:15;1.60;99.90
25937;DHT22;13733;51.178;4.450;2023-03-01T01:07:47;1.70;99.90
25937;DHT22;13733;51.178;4.450;2023-03-01T01:10:13;1.70;99.90
25937;DHT22;13733;51.178;4.450;2023-03-01T01:12:44;1.60;99.90
25937;DHT22;13733;51.178;4.450;2023-03-01T01:15:10;1.60;99.90
25937;DHT22;13733;51.178;4.450;2023-03-01T01:17:38;1.50;99.90
25937;DHT22;13733;51.178;4.450;2023-03-01T01:20:06;1.50;99.90
25937;DHT22;13733;51.178;4.450;2023-03-01T01:22:32;1.40;99.90
25937;DHT22;13733;51.178;4.450;2023-03-01T01:24:58;1.50;99.90
25937;DHT22;13733;51.178;4.450;2023-03-01T01:27:24;1.50;99.90
25937;DHT22;13733;51.178;4.450;2023-03-01T01:29:50;1.50;99.90
25937;DHT22;13733;51.178;4.450;2023-03-01T01:32:17;1.60;99.90
25937;DHT22;13733;51.178;4.450;2023-03-01T01:34:43;1.60;99.90
25937;DHT22;13733;51.178;4.450;2023-03-01T01:37:09;1.50;99.90
25937;DHT22;13733;51.178;4.450;2023-03-01T01:39:35;1.40;99.90
25937;DHT22;13733;51.178;4.450;2023-03-01T01:42:02;1.40;99.90
25937;DHT22;13733;51.178;4.450;2023-03-01T01:44:29;1.40;99.90
25937;DHT22;13733;51.178;4.450;2023-03-01T01:47:04;1.40;99.90
25937;DHT22;13733;51.178;4.450;2023-03-01T01:49:57;1.40;99.90
25937;DHT22;13733;51.178;4.450;2023-03-01T01:52:31;1.40;99.90
25937;DHT22;13733;51.178;4.450;2023-03-01T01:55:11;1.40;99.90
25937;DHT22;13733;51.178;4.450;2023-03-01T01:57:47;1.40;99.90
25937;DHT22;13733;51.178;4.450;2023-03-01T02:00:21;1.40;99.90
25937;DHT22;13733;51.178;4.450;2023-03-01T02:02:50;1.30;99.90
25937;DHT22;13733;51.178;4.450;2023-03-01T02:05:34;1.30;99.90
25937;DHT22;13733;51.178;4.450;2023-03-01T02:08:02;1.30;99.90
25937;DHT22;13733;51.178;4.450;2023-03-01T02:10:29;1.30;99.90
25937;DHT22;13733;51.178;4.450;2023-03-01T02:12:58;1.30;99.90
25937;DHT22;13733;51.178;4.450;2023-03-01T02:15:32;1.30;99.90
25937;DHT22;13733;51.178;4.450;2023-03-01T02:17:58;1.20;99.90
25937;DHT22;13733;51.178;4.450;2023-03-01T02:23:00;1.20;99.90
25937;DHT22;13733;51.178;4.450;2023-03-01T02:30:48;1.20;99.90
25937;DHT22;13733;51.178;4.450;2023-03-01T02:33:35;1.10;99.90
25937;DHT22;13733;51.178;4.450;2023-03-01T02:36:26;1.10;99.90
25937;DHT22;13733;51.178;4.450;2023-03-01T02:38:52;1.10;99.90
25937;DHT22;13733;51.178;4.450;2023-03-01T02:41:19;1.10;99.90
25937;DHT22;13733;51.178;4.450;2023-03-01T02:43:46;1.00;99.90
25937;DHT22;13733;51.178;4.450;2023-03-01T02:46:24;1.00;99.90
25937;DHT22;13733;51.178;4.450;2023-03-01T02:48:52;1.00;99.90
25937;DHT22;13733;51.178;4.450;2023-03-01T02:56:44;0.90;99.90
25937;DHT22;13733;51.178;4.450;2023-03-01T02:59:10;0.90;99.90
25937;DHT22;13733;51.178;4.450;2023-03-01T03:01:39;0.80;99.90
25937;DHT22;13733;51.178;4.450;2023-03-01T03:04:11;0.80;99.90
25937;DHT22;13733;51.178;4.450;2023-03-01T03:06:46;0.90;99.90
25937;DHT22;13733;51.178;4.450;2023-03-01T03:09:13;0.90;99.90
25937;DHT22;13733;51.178;4.450;2023-03-01T03:11:39;0.80;99.90
25937;DHT22;13733;51.178;4.450;2023-03-01T03:14:07;0.80;99.90
25937;DHT22;13733;51.178;4.450;2023-03-01T03:16:50;0.80;99.90
25937;DHT22;13733;51.178;4.450;2023-03-01T03:19:18;0.80;99.90
25937;DHT22;13733;51.178;4.450;2023-03-01T03:21:44;0.70;99.90
25937;DHT22;13733;51.178;4.450;2023-03-01T03:24:11;0.70;99.90
25937;DHT22;13733;51.178;4.450;2023-03-01T03:26:37;0.70;99.90
25937;DHT22;13733;51.178;4.450;2023-03-01T03:29:02;0.70;99.90
25937;DHT22;13733;51.178;4.450;2023-03-01T03:31:29;0.70;99.90
25937;DHT22;13733;51.178;4.450;2023-03-01T03:33:54;0.70;99.90
25937;DHT22;13733;51.178;4.450;2023-03-01T03:36:23;0.70;99.90
25937;DHT22;13733;51.178;4.450;2023-03-01T03:38:49;0.60;99.90
25937;DHT22;13733;51.178;4.450;2023-03-01T03:41:15;0.60;99.90
25937;DHT22;13733;51.178;4.450;2023-03-01T03:43:42;0.60;99.90
25937;DHT22;13733;51.178;4.450;2023-03-01T03:46:10;0.70;99.90
25937;DHT22;13733;51.178;4.450;2023-03-01T03:48:41;0.60;99.90
25937;DHT22;13733;51.178;4.450;2023-03-01T03:51:10;0.60;99.90
25937;DHT22;13733;51.178;4.450;2023-03-01T03:53:36;0.60;99.90
25937;DHT22;13733;51.178;4.450;2023-03-01T03:56:03;0.60;99.90
25937;DHT22;13733;51.178;4.450;2023-03-01T03:58:30;0.60;99.90
25937;DHT22;13733;51.178;4.450;2023-03-01T04:00:57;0.50;99.90
25937;DHT22;13733;51.178;4.450;2023-03-01T04:03:24;0.60;99.90
25937;DHT22;13733;51.178;4.450;2023-03-01T04:05:51;0.60;99.90
25937;DHT22;13733;51.178;4.450;2023-03-01T04:08:21;0.50;99.90
25937;DHT22;13733;51.178;4.450;2023-03-01T04:10:48;0.40;99.90
25937;DHT22;13733;51.178;4.450;2023-03-01T04:13:17;0.40;99.90
25937;DHT22;13733;51.178;4.450;2023-03-01T04:15:45;0.40;99.90
25937;DHT22;13733;51.178;4.450;2023-03-01T04:18:13;0.40;99.90
25937;DHT22;13733;51.178;4.450;2023-03-01T04:20:39;0.40;99.90
25937;DHT22;13733;51.178;4.450;2023-03-01T04:23:10;0.40;99.90
25937;DHT22;13733;51.178;4.450;2023-03-01T04:25:56;0.30;99.90
25937;DHT22;13733;51.178;4.450;2023-03-01T04:28:28;0.30;99.90
25937;DHT22;13733;51.178;4.450;2023-03-01T04:30:55;0.30;99.90
25937;DHT22;13733;51.178;4.450;2023-03-01T04:33:23;0.30;99.90
25937;DHT22;13733;51.178;4.450;2023-03-01T04:35:49;0.20;99.90
25937;DHT22;13733;51.178;4.450;2023-03-01T04:38:16;0.20;99.90
25937;DHT22;13733;51.178;4.450;2023-03-01T04:40:41;0.20;99.90
25937;DHT22;13733;51.178;4.450;2023-03-01T04:43:10;0.20;99.90
25937;DHT22;13733;51.178;4.450;2023-03-01T04:45:36;0.20;99.90
25937;DHT22;13733;51.178;4.450;2023-03-01T04:48:03;0.20;99.90
25937;DHT22;13733;51.178;4.450;2023-03-01T04:50:29;0.20;99.90
25937;DHT22;13733;51.178;4.450;2023-03-01T04:52:55;0.20;99.90
25937;DHT22;13733;51.178;4.450;2023-03-01T04:55:26;0.20;99.90
25937;DHT22;13733;51.178;4.450;2023-03-01T04:57:52;0.10;99.90
25937;DHT22;13733;51.178;4.450;2023-03-01T05:00:19;0.20;99.90
25937;DHT22;13733;51.178;4.450;2023-03-01T05:02:52;0.20;99.90
25937;DHT22;13733;51.178;4.450;2023-03-01T05:05:32;0.10;99.90
25937;DHT22;13733;51.178;4.450;2023-03-01T05:08:01;0.10;99.90
25937;DHT22;13733;51.178;4.450;2023-03-01T05:10:29;0.00;99.90
25937;DHT22;13733;51.178;4.450;2023-03-01T05:12:56;0.10;99.90
25937;DHT22;13733;51.178;4.450;2023-03-01T05:15:23;0.10;99.90
25937;DHT22;13733;51.178;4.450;2023-03-01T05:17:54;0.00;99.90
25937;DHT22;13733;51.178;4.450;2023-03-01T05:20:22;0.00;99.90
25937;DHT22;13733;51.178;4.450;2023-03-01T05:22:51;0.00;99.90
25937;DHT22;13733;51.178;4.450;2023-03-01T05:25:18;0.00;99.90
25937;DHT22;13733;51.178;4.450;2023-03-01T05:27:43;0.00;99.90
25937;DHT22;13733;51.178;4.450;2023-03-01T05:30:10;0.00;99.90
25937;DHT22;13733;51.178;4.450;2023-03-01T05:32:41;0.00;99.90
25937;DHT22;13733;51.178;4.450;2023-03-01T05:35:09;-0.10;99.90
25937;DHT22;13733;51.178;4.450;2023-03-01T05:37:43;-0.10;99.90
25937;DHT22;13733;51.178;4.450;2023-03-01T05:40:14;-0.10;99.90
25937;DHT22;13733;51.178;4.450;2023-03-01T05:42:45;-0.20;99.90
25937;DHT22;13733;51.178;4.450;2023-03-01T05:45:12;-0.10;99.90
25937;DHT22;13733;51.178;4.450;2023-03-01T05:47:40;-0.10;99.90
25937;DHT22;13733;51.178;4.450;2023-03-01T05:50:12;-0.10;99.90
25937;DHT22;13733;51.178;4.450;2023-03-01T05:52:38;-0.10;99.90
25937;DHT22;13733;51.178;4.450;2023-03-01T05:55:04;-0.10;99.90
25937;DHT22;13733;51.178;4.450;2023-03-01T05:57:30;-0.20;99.90
25937;DHT22;13733;51.178;4.450;2023-03-01T05:59:57;-0.10;99.90
25937;DHT22;13733;51.178;4.450;2023-03-01T06:02:23;-0.10;99.90
25937;DHT22;13733;51.178;4.450;2023-03-01T06:04:48;-0.10;99.90
25937;DHT22;13733;51.178;4.450;2023-03-01T06:07:14;-0.10;99.90
25937;DHT22;13733;51.178;4.450;2023-03-01T06:09:40;-0.10;99.90
25937;DHT22;13733;51.178;4.450;2023-03-01T06:12:07;-0.20;99.90
25937;DHT22;13733;51.178;4.450;2023-03-01T06:14:33;-0.20;99.90
25937;DHT22;13733;51.178;4.450;2023-03-01T06:16:59;-0.20;99.90
25937;DHT22;13733;51.178;4.450;2023-03-01T06:19:24;-0.20;99.90
25937;DHT22;13733;51.178;4.450;2023-03-01T06:21:50;-0.10;99.90
25937;DHT22;13733;51.178;4.450;2023-03-01T06:24:16;-0.10;99.90
25937;DHT22;13733;51.178;4.450;2023-03-01T06:26:41;-0.10;99.90
25937;DHT22;13733;51.178;4.450;2023-03-01T06:29:07;-0.20;99.90
25937;DHT22;13733;51.178;4.450;2023-03-01T06:31:34;-0.10;99.90
25937;DHT22;13733;51.178;4.450;2023-03-01T06:33:59;-0.10;99.90
25937;DHT22;13733;51.178;4.450;2023-03-01T06:36:25;-0.10;99.90
25937;DHT22;13733;51.178;4.450;2023-03-01T06:38:51;-0.10;99.90
25937;DHT22;13733;51.178;4.450;2023-03-01T06:41:17;-0.10;99.90
25937;DHT22;13733;51.178;4.450;2023-03-01T06:43:43;-0.10;99.90
25937;DHT22;13733;51.178;4.450;2023-03-01T06:46:08;-0.10;99.90
25937;DHT22;13733;51.178;4.450;2023-03-01T06:48:34;-0.10;99.90
25937;DHT22;13733;51.178;4.450;2023-03-01T06:51:00;-0.10;99.90
25937;DHT22;13733;51.178;4.450;2023-03-01T06:53:27;0.00;99.90
25937;DHT22;13733;51.178;4.450;2023-03-01T06:55:57;0.00;99.90
25937;DHT22;13733;51.178;4.450;2023-03-01T06:58:26;0.00;99.90
25937;DHT22;13733;51.178;4.450;2023-03-01T07:00:52;0.00;99.90
25937;DHT22;13733;51.178;4.450;2023-03-01T07:03:17;0.00;99.90
25937;DHT22;13733;51.178;4.450;2023-03-01T07:05:43;0.00;99.90
25937;DHT22;13733;51.178;4.450;2023-03-01T07:08:10;0.00;99.90
25937;DHT22;13733;51.178;4.450;2023-03-01T07:10:35;0.00;99.90
25937;DHT22;13733;51.178;4.450;2023-03-01T07:13:01;0.10;99.90
25937;DHT22;13733;51.178;4.450;2023-03-01T07:15:28;0.10;99.90
25937;DHT22;13733;51.178;4.450;2023-03-01T07:17:54;0.10;99.90
25937;DHT22;13733;51.178;4.450;2023-03-01T07:20:22;0.20;99.90
25937;DHT22;13733;51.178;4.450;2023-03-01T07:22:53;0.20;99.90
25937;DHT22;13733;51.178;4.450;2023-03-01T07:25:19;0.20;99.90
25937;DHT22;13733;51.178;4.450;2023-03-01T07:27:49;0.20;99.90
25937;DHT22;13733;51.178;4.450;2023-03-01T07:30:16;0.30;99.90
25937;DHT22;13733;51.178;4.450;2023-03-01T07:32:41;0.40;99.90
25937;DHT22;13733;51.178;4.450;2023-03-01T07:35:07;0.40;99.90
25937;DHT22;13733;51.178;4.450;2023-03-01T07:37:33;0.50;99.90
25937;DHT22;13733;51.178;4.450;2023-03-01T07:39:59;0.50;99.90
25937;DHT22;13733;51.178;4.450;2023-03-01T07:42:24;0.50;99.90
25937;DHT22;13733;51.178;4.450;2023-03-01T07:44:50;0.60;99.90
25937;DHT22;13733;51.178;4.450;2023-03-01T07:47:16;0.60;99.90
25937;DHT22;13733;51.178;4.450;2023-03-01T07:49:41;0.70;99.90
25937;DHT22;13733;51.178;4.450;2023-03-01T07:52:10;0.70;99.90
25937;DHT22;13733;51.178;4.450;2023-03-01T07:54:38;0.90;99.90
25937;DHT22;13733;51.178;4.450;2023-03-01T07:57:03;0.90;99.90
25937;DHT22;13733;51.178;4.450;2023-03-01T07:59:31;1.00;99.90
25937;DHT22;13733;51.178;4.450;2023-03-01T08:01:58;1.10;99.90
25937;DHT22;13733;51.178;4.450;2023-03-01T08:04:24;1.20;99.90
25937;DHT22;13733;51.178;4.450;2023-03-01T08:06:53;1.30;99.90
25937;DHT22;13733;51.178;4.450;2023-03-01T08:09:19;1.30;99.90
25937;DHT22;13733;51.178;4.450;2023-03-01T08:11:45;1.50;99.90
25937;DHT22;13733;51.178;4.450;2023-03-01T08:14:11;1.60;99.90
25937;DHT22;13733;51.178;4.450;2023-03-01T08:16:37;1.70;99.90
25937;DHT22;13733;51.178;4.450;2023-03-01T08:19:08;1.70;99.90
25937;DHT22;13733;51.178;4.450;2023-03-01T08:21:34;1.80;99.90
25937;DHT22;13733;51.178;4.450;2023-03-01T08:24:04;1.90;99.90
25937;DHT22;13733;51.178;4.450;2023-03-01T08:26:31;2.00;99.90
25937;DHT22;13733;51.178;4.450;2023-03-01T08:28:57;2.10;99.90
25937;DHT22;13733;51.178;4.450;2023-03-01T08:31:30;2.10;99.90
25937;DHT22;13733;51.178;4.450;2023-03-01T08:33:59;2.20;99.90
25937;DHT22;13733;51.178;4.450;2023-03-01T08:36:31;2.30;99.90
25937;DHT22;13733;51.178;4.450;2023-03-01T08:38:58;2.30;99.90
25937;DHT22;13733;51.178;4.450;2023-03-01T08:41:24;2.50;99.90
25937;DHT22;13733;51.178;4.450;2023-03-01T08:43:50;2.50;99.90
25937;DHT22;13733;51.178;4.450;2023-03-01T08:46:16;2.60;99.90
25937;DHT22;13733;51.178;4.450;2023-03-01T08:48:42;2.70;99.90
25937;DHT22;13733;51.178;4.450;2023-03-01T08:53:34;2.80;99.90
25937;DHT22;13733;51.178;4.450;2023-03-01T08:56:00;2.90;99.90
25937;DHT22;13733;51.178;4.450;2023-03-01T08:58:28;3.10;99.90
25937;DHT22;13733;51.178;4.450;2023-03-01T09:00:54;3.20;99.90
25937;DHT22;13733;51.178;4.450;2023-03-01T09:03:22;3.30;99.90
25937;DHT22;13733;51.178;4.450;2023-03-01T09:05:48;3.40;99.90
25937;DHT22;13733;51.178;4.450;2023-03-01T09:08:19;3.30;99.90
25937;DHT22;13733;51.178;4.450;2023-03-01T09:10:45;3.40;99.90
25937;DHT22;13733;51.178;4.450;2023-03-01T09:13:11;3.50;99.90
25937;DHT22;13733;51.178;4.450;2023-03-01T09:15:37;3.60;99.90
25937;DHT22;13733;51.178;4.450;2023-03-01T09:18:05;3.70;99.90
25937;DHT22;13733;51.178;4.450;2023-03-01T09:20:31;3.80;99.90
25937;DHT22;13733;51.178;4.450;2023-03-01T09:22:57;3.90;99.90
25937;DHT22;13733;51.178;4.450;2023-03-01T09:25:23;4.00;99.90
25937;DHT22;13733;51.178;4.450;2023-03-01T09:27:53;4.00;99.90
25937;DHT22;13733;51.178;4.450;2023-03-01T09:30:20;4.10;99.90
25937;DHT22;13733;51.178;4.450;2023-03-01T09:32:46;4.10;99.90
25937;DHT22;13733;51.178;4.450;2023-03-01T09:35:13;4.20;99.90
25937;DHT22;13733;51.178;4.450;2023-03-01T09:37:39;4.30;99.90
25937;DHT22;13733;51.178;4.450;2023-03-01T09:40:19;4.50;99.90
25937;DHT22;13733;51.178;4.450;2023-03-01T09:42:53;4.60;99.90
25937;DHT22;13733;51.178;4.450;2023-03-01T09:45:27;4.50;99.90
25937;DHT22;13733;51.178;4.450;2023-03-01T09:47:55;4.60;99.90
25937;DHT22;13733;51.178;4.450;2023-03-01T09:50:22;4.70;99.90
25937;DHT22;13733;51.178;4.450;2023-03-01T09:53:05;4.80;99.90
25937;DHT22;13733;51.178;4.450;2023-03-01T09:55:39;4.80;99.90
25937;DHT22;13733;51.178;4.450;2023-03-01T09:58:36;4.80;99.90
25937;DHT22;13733;51.178;4.450;2023-03-01T10:01:18;4.90;99.90
25937;DHT22;13733;51.178;4.450;2023-03-01T10:07:05;5.20;99.90
25937;DHT22;13733;51.178;4.450;2023-03-01T10:09:35;5.30;99.90
25937;DHT22;13733;51.178;4.450;2023-03-01T10:12:02;5.40;99.90
25937;DHT22;13733;51.178;4.450;2023-03-01T10:17:04;5.70;99.90
25937;DHT22;13733;51.178;4.450;2023-03-01T10:19:40;5.80;99.90
25937;DHT22;13733;51.178;4.450;2023-03-01T10:22:20;6.00;99.90
25937;DHT22;13733;51.178;4.450;2023-03-01T10:24:47;6.20;99.90
25937;DHT22;13733;51.178;4.450;2023-03-01T10:27:24;6.40;99.90
25937;DHT22;13733;51.178;4.450;2023-03-01T10:32:51;6.50;98.50
25937;DHT22;13733;51.178;4.450;2023-03-01T10:35:22;6.60;98.10
25937;DHT22;13733;51.178;4.450;2023-03-01T10:38:09;6.80;97.80
25937;DHT22;13733;51.178;4.450;2023-03-01T10:40:36;7.00;96.60
25937;DHT22;13733;51.178;4.450;2023-03-01T10:43:04;7.20;95.90
25937;DHT22;13733;51.178;4.450;2023-03-01T10:45:34;7.40;95.50
25937;DHT22;13733;51.178;4.450;2023-03-01T10:53:24;8.30;92.10
25937;DHT22;13733;51.178;4.450;2023-03-01T10:56:07;8.40;90.80
25937;DHT22;13733;51.178;4.450;2023-03-01T10:58:35;8.50;90.70
25937;DHT22;13733;51.178;4.450;2023-03-01T11:01:04;8.70;90.30
25937;DHT22;13733;51.178;4.450;2023-03-01T11:03:31;8.90;87.30
25937;DHT22;13733;51.178;4.450;2023-03-01T11:08:34;9.00;85.50
25937;DHT22;13733;51.178;4.450;2023-03-01T11:13:35;9.30;84.00
25937;DHT22;13733;51.178;4.450;2023-03-01T11:16:07;9.60;83.40
25937;DHT22;13733;51.178;4.450;2023-03-01T11:18:35;9.70;78.90
25937;DHT22;13733;51.178;4.450;2023-03-01T11:21:03;9.70;79.80
25937;DHT22;13733;51.178;4.450;2023-03-01T11:23:30;9.70;77.50
25937;DHT22;13733;51.178;4.450;2023-03-01T11:26:07;9.80;75.50
25937;DHT22;13733;51.178;4.450;2023-03-01T11:28:37;9.60;74.90
25937;DHT22;13733;51.178;4.450;2023-03-01T11:31:09;9.50;75.50
25937;DHT22;13733;51.178;4.450;2023-03-01T11:41:58;10.50;71.50
25937;DHT22;13733;51.178;4.450;2023-03-01T11:44:28;10.90;70.20
25937;DHT22;13733;51.178;4.450;2023-03-01T12:23:42;14.90;44.10
25937;DHT22;13733;51.178;4.450;2023-03-01T12:31:53;14.70;45.00
25937;DHT22;13733;51.178;4.450;2023-03-01T12:34:48;15.40;42.80
25937;DHT22;13733;51.178;4.450;2023-03-01T12:37:22;15.70;41.50
25937;DHT22;13733;51.178;4.450;2023-03-01T12:42:44;16.80;39.20
25937;DHT22;13733;51.178;4.450;2023-03-01T12:51:03;18.00;35.80
25937;DHT22;13733;51.178;4.450;2023-03-01T12:53:35;18.20;34.80
25937;DHT22;13733;51.178;4.450;2023-03-01T12:56:24;18.00;34.70
25937;DHT22;13733;51.178;4.450;2023-03-01T13:02:00;18.60;33.80
25937;DHT22;13733;51.178;4.450;2023-03-01T13:15:26;18.50;31.70
25937;DHT22;13733;51.178;4.450;2023-03-01T13:17:53;18.30;31.70
25937;DHT22;13733;51.178;4.450;2023-03-01T13:20:25;18.50;31.40
25937;DHT22;13733;51.178;4.450;2023-03-01T13:26:12;18.40;31.40
25937;DHT22;13733;51.178;4.450;2023-03-01T13:33:46;19.50;29.60
25937;DHT22;13733;51.178;4.450;2023-03-01T13:39:01;20.20;29.50
25937;DHT22;13733;51.178;4.450;2023-03-01T13:46:59;20.90;28.30
25937;DHT22;13733;51.178;4.450;2023-03-01T13:49:42;20.40;28.20
25937;DHT22;13733;51.178;4.450;2023-03-01T13:52:39;18.80;29.40
25937;DHT22;13733;51.178;4.450;2023-03-01T13:57:43;18.70;30.70
25937;DHT22;13733;51.178;4.450;2023-03-01T14:00:32;19.70;29.90
25937;DHT22;13733;51.178;4.450;2023-03-01T14:03:13;19.00;29.90
25937;DHT22;13733;51.178;4.450;2023-03-01T14:05:42;19.50;29.90
25937;DHT22;13733;51.178;4.450;2023-03-01T14:08:24;20.50;28.90
25937;DHT22;13733;51.178;4.450;2023-03-01T14:13:48;21.30;27.10
25937;DHT22;13733;51.178;4.450;2023-03-01T14:19:18;21.00;27.20
25937;DHT22;13733;51.178;4.450;2023-03-01T14:27:35;20.10;28.50
25937;DHT22;13733;51.178;4.450;2023-03-01T14:30:09;21.00;28.00
25937;DHT22;13733;51.178;4.450;2023-03-01T14:32:41;21.50;27.20
25937;DHT22;13733;51.178;4.450;2023-03-01T14:35:26;22.00;26.80
25937;DHT22;13733;51.178;4.450;2023-03-01T14:37:52;22.00;26.40
25937;DHT22;13733;51.178;4.450;2023-03-01T14:40:29;22.10;25.80
25937;DHT22;13733;51.178;4.450;2023-03-01T14:42:58;21.60;25.60
25937;DHT22;13733;51.178;4.450;2023-03-01T14:45:27;21.20;26.80
25937;DHT22;13733;51.178;4.450;2023-03-01T14:47:54;21.70;26.40
25937;DHT22;13733;51.178;4.450;2023-03-01T14:50:27;21.10;26.10
25937;DHT22;13733;51.178;4.450;2023-03-01T14:53:05;20.40;27.40
25937;DHT22;13733;51.178;4.450;2023-03-01T14:55:37;20.40;27.40
25937;DHT22;13733;51.178;4.450;2023-03-01T14:58:05;20.70;27.40
25937;DHT22;13733;51.178;4.450;2023-03-01T15:00:34;21.20;26.90
25937;DHT22;13733;51.178;4.450;2023-03-01T15:03:25;21.80;26.20
25937;DHT22;13733;51.178;4.450;2023-03-01T15:05:52;21.80;26.20
25937;DHT22;13733;51.178;4.450;2023-03-01T15:08:21;22.10;26.40
25937;DHT22;13733;51.178;4.450;2023-03-01T15:13:35;21.20;26.40
25937;DHT22;13733;51.178;4.450;2023-03-01T15:16:10;21.20;26.80
25937;DHT22;13733;51.178;4.450;2023-03-01T15:18:37;21.10;27.10
25937;DHT22;13733;51.178;4.450;2023-03-01T15:21:17;21.20;27.20
25937;DHT22;13733;51.178;4.450;2023-03-01T15:23:49;21.60;27.00
25937;DHT22;13733;51.178;4.450;2023-03-01T15:26:29;21.30;26.50
25937;DHT22;13733;51.178;4.450;2023-03-01T15:28:57;21.00;26.60
25937;DHT22;13733;51.178;4.450;2023-03-01T15:31:35;20.80;27.10
25937;DHT22;13733;51.178;4.450;2023-03-01T15:34:31;21.10;27.20
25937;DHT22;13733;51.178;4.450;2023-03-01T15:36:59;21.30;27.20
25937;DHT22;13733;51.178;4.450;2023-03-01T15:39:33;21.20;27.10
25937;DHT22;13733;51.178;4.450;2023-03-01T15:47:46;21.10;27.20
25937;DHT22;13733;51.178;4.450;2023-03-01T15:50:28;21.00;27.60
25937;DHT22;13733;51.178;4.450;2023-03-01T15:52:55;21.10;27.10
25937;DHT22;13733;51.178;4.450;2023-03-01T15:55:26;21.40;26.80
25937;DHT22;13733;51.178;4.450;2023-03-01T15:58:08;21.40;26.80
25937;DHT22;13733;51.178;4.450;2023-03-01T16:00:35;21.50;26.30
25937;DHT22;13733;51.178;4.450;2023-03-01T16:03:00;21.30;26.80
25937;DHT22;13733;51.178;4.450;2023-03-01T16:05:29;21.00;26.60
25937;DHT22;13733;51.178;4.450;2023-03-01T16:07:56;20.20;27.20
25937;DHT22;13733;51.178;4.450;2023-03-01T16:10:22;20.20;27.70
25937;DHT22;13733;51.178;4.450;2023-03-01T16:12:49;20.20;27.80
25937;DHT22;13733;51.178;4.450;2023-03-01T16:15:31;20.00;27.80
25937;DHT22;13733;51.178;4.450;2023-03-01T16:17:57;20.40;27.40
25937;DHT22;13733;51.178;4.450;2023-03-01T16:20:26;19.90;27.30
25937;DHT22;13733;51.178;4.450;2023-03-01T16:22:52;19.10;28.00
25937;DHT22;13733;51.178;4.450;2023-03-01T16:25:19;17.80;29.00
25937;DHT22;13733;51.178;4.450;2023-03-01T16:27:47;16.00;31.80
25937;DHT22;13733;51.178;4.450;2023-03-01T16:30:16;14.80;33.80
25937;DHT22;13733;51.178;4.450;2023-03-01T16:32:44;13.70;35.70
25937;DHT22;13733;51.178;4.450;2023-03-01T16:35:12;13.00;37.20
25937;DHT22;13733;51.178;4.450;2023-03-01T16:37:39;12.50;38.80
25937;DHT22;13733;51.178;4.450;2023-03-01T16:40:14;12.00;39.70
25937;DHT22;13733;51.178;4.450;2023-03-01T16:42:41;11.70;40.70
25937;DHT22;13733;51.178;4.450;2023-03-01T16:45:08;11.40;42.00
25937;DHT22;13733;51.178;4.450;2023-03-01T16:47:34;11.20;42.60
25937;DHT22;13733;51.178;4.450;2023-03-01T16:50:00;10.90;43.40
25937;DHT22;13733;51.178;4.450;2023-03-01T16:52:26;10.70;44.00
25937;DHT22;13733;51.178;4.450;2023-03-01T16:54:52;10.30;46.80
25937;DHT22;13733;51.178;4.450;2023-03-01T16:57:18;10.20;47.10
25937;DHT22;13733;51.178;4.450;2023-03-01T16:59:44;10.00;48.00
25937;DHT22;13733;51.178;4.450;2023-03-01T17:02:11;9.90;48.50
25937;DHT22;13733;51.178;4.450;2023-03-01T17:04:39;9.90;49.20
25937;DHT22;13733;51.178;4.450;2023-03-01T17:07:05;9.70;50.00
25937;DHT22;13733;51.178;4.450;2023-03-01T17:09:34;9.50;51.30
25937;DHT22;13733;51.178;4.450;2023-03-01T17:12:00;9.30;52.20
25937;DHT22;13733;51.178;4.450;2023-03-01T17:14:26;9.40;53.60
25937;DHT22;13733;51.178;4.450;2023-03-01T17:16:52;9.20;53.60
25937;DHT22;13733;51.178;4.450;2023-03-01T17:19:18;9.20;54.40
25937;DHT22;13733;51.178;4.450;2023-03-01T17:21:44;9.00;54.90
25937;DHT22;13733;51.178;4.450;2023-03-01T17:24:11;8.90;55.50
25937;DHT22;13733;51.178;4.450;2023-03-01T17:26:37;8.80;56.50
25937;DHT22;13733;51.178;4.450;2023-03-01T17:29:04;8.80;56.80
25937;DHT22;13733;51.178;4.450;2023-03-01T17:31:31;8.70;57.80
25937;DHT22;13733;51.178;4.450;2023-03-01T17:33:58;8.70;58.40
25937;DHT22;13733;51.178;4.450;2023-03-01T17:36:24;8.70;58.80
25937;DHT22;13733;51.178;4.450;2023-03-01T17:38:51;8.60;59.70
25937;DHT22;13733;51.178;4.450;2023-03-01T17:41:17;8.50;60.50
25937;DHT22;13733;51.178;4.450;2023-03-01T17:43:46;8.50;62.00
25937;DHT22;13733;51.178;4.450;2023-03-01T17:46:12;8.40;62.50
25937;DHT22;13733;51.178;4.450;2023-03-01T17:48:38;8.40;63.80
25937;DHT22;13733;51.178;4.450;2023-03-01T17:51:09;8.30;64.90
25937;DHT22;13733;51.178;4.450;2023-03-01T17:53:36;8.30;66.10
25937;DHT22;13733;51.178;4.450;2023-03-01T17:56:04;8.20;66.50
25937;DHT22;13733;51.178;4.450;2023-03-01T17:58:31;8.10;67.70
25937;DHT22;13733;51.178;4.450;2023-03-01T18:01:26;8.00;69.00
25937;DHT22;13733;51.178;4.450;2023-03-01T18:03:53;7.90;69.70
25937;DHT22;13733;51.178;4.450;2023-03-01T18:06:24;7.90;71.20
25937;DHT22;13733;51.178;4.450;2023-03-01T18:08:50;7.80;71.70
25937;DHT22;13733;51.178;4.450;2023-03-01T18:11:18;7.80;72.30
25937;DHT22;13733;51.178;4.450;2023-03-01T18:13:45;7.70;73.00
25937;DHT22;13733;51.178;4.450;2023-03-01T18:16:14;7.70;74.70
25937;DHT22;13733;51.178;4.450;2023-03-01T18:18:41;7.60;75.20
25937;DHT22;13733;51.178;4.450;2023-03-01T18:21:07;7.40;76.80
25937;DHT22;13733;51.178;4.450;2023-03-01T18:23:34;7.40;78.20